Time;durP1;ratioP1;P1;durP2;ratioP2;P2;SDS_P1;SDS_P2;PMS_P1;PMS_P2;Temp;Humidity;BMP_temperature;BMP_pressure;BME280_temperature;BME280_humidity;BME280_pressure;Samples;Min_cycle;Max_cycle;Signal;HPM_P1;HPM_P2
2023/11/13 08:01:24;;;;;;;14.87;9.37;;;6.20;99.90;;;;;;5069102;28;20969;-84
2023/11/13 08:03:52;;;;;;;16.00;8.90;;;6.20;99.90;;;;;;5069696;28;20202;-88
2023/11/13 08:06:19;;;;;;;14.60;9.27;;;6.20;99.90;;;;;;5068797;28;20193;-88
2023/11/13 08:08:49;;;;;;;14.70;8.30;;;6.30;99.90;;;;;;5069851;28;20277;-90
2023/11/13 08:11:17;;;;;;;14.80;8.90;;;6.30;99.90;;;;;;5069911;28;20212;-90
2023/11/13 08:13:45;;;;;;;12.97;8.07;;;6.40;99.90;;;;;;5068776;28;20538;-90
2023/11/13 08:16:13;;;;;;;13.33;8.50;;;6.40;99.90;;;;;;5051937;28;20191;-86
2023/11/13 08:18:40;;;;;;;13.43;8.10;;;6.40;99.90;;;;;;5067716;28;20223;-86
2023/11/13 08:21:10;;;;;;;12.67;7.67;;;6.40;99.90;;;;;;5069141;28;20217;-83
2023/11/13 08:23:37;;;;;;;11.30;7.83;;;6.50;99.90;;;;;;5069100;28;20194;-84
2023/11/13 08:26:05;;;;;;;13.03;8.03;;;6.50;99.90;;;;;;5069371;28;20210;-84
2023/11/13 08:28:33;;;;;;;12.47;8.10;;;6.50;99.90;;;;;;5067894;28;20573;-84
2023/11/13 08:31:00;;;;;;;12.10;7.50;;;6.60;99.90;;;;;;5068395;28;20197;-85
2023/11/13 08:33:33;;;;;;;13.17;7.83;;;6.60;99.90;;;;;;5068298;28;20203;-84
2023/11/13 08:36:01;;;;;;;10.93;7.30;;;6.60;99.90;;;;;;5051512;28;20610;-84
2023/11/13 08:38:32;;;;;;;13.23;8.20;;;6.70;99.90;;;;;;5067899;28;20223;-89
2023/11/13 08:41:03;;;;;;;12.97;7.40;;;6.70;99.90;;;;;;5068259;28;20238;-86
2023/11/13 08:43:33;;;;;;;12.43;7.80;;;6.70;99.90;;;;;;5067833;28;20283;-86
2023/11/13 08:46:00;;;;;;;11.83;7.73;;;6.80;99.90;;;;;;5067986;28;20239;-85
2023/11/13 08:48:28;;;;;;;12.20;7.23;;;6.80;99.90;;;;;;5051242;28;20198;-86
2023/11/13 08:50:59;;;;;;;14.03;7.87;;;6.80;99.90;;;;;;5068775;28;20193;-84
2023/11/13 08:53:28;;;;;;;13.80;7.10;;;6.90;99.90;;;;;;5067920;28;20188;-90
2023/11/13 08:55:56;;;;;;;15.00;7.67;;;7.00;99.90;;;;;;5067695;28;20215;-83
2023/11/13 08:58:24;;;;;;;11.53;7.40;;;6.90;99.90;;;;;;5069041;28;20251;-81
2023/11/13 09:00:53;;;;;;;11.70;7.07;;;6.90;99.90;;;;;;5050454;28;20245;-82
2023/11/13 09:03:21;;;;;;;11.13;7.10;;;7.00;99.90;;;;;;5068448;28;20185;-82
2023/11/13 09:05:49;;;;;;;13.00;7.63;;;7.10;99.90;;;;;;5067138;28;20278;-82
2023/11/13 09:08:16;;;;;;;14.30;7.43;;;7.10;99.90;;;;;;5066992;28;20596;-82
2023/11/13 09:10:44;;;;;;;14.00;7.40;;;7.10;99.90;;;;;;5047978;28;20622;-82
2023/11/13 09:13:12;;;;;;;12.57;7.40;;;6.90;99.90;;;;;;5055008;28;20232;-81
2023/11/13 09:15:40;;;;;;;13.87;7.70;;;6.90;99.90;;;;;;5053713;28;20289;-82
2023/11/13 09:18:09;;;;;;;12.57;7.60;;;7.00;99.90;;;;;;5053741;28;20682;-83
2023/11/13 09:20:38;;;;;;;10.70;7.30;;;7.10;99.90;;;;;;5054980;28;20221;-82
2023/11/13 09:23:05;;;;;;;13.43;7.63;;;7.10;99.90;;;;;;5053924;28;20733;-82
2023/11/13 09:25:33;;;;;;;11.43;7.47;;;7.20;99.90;;;;;;5054811;28;20211;-84
2023/11/13 09:28:01;;;;;;;12.70;7.67;;;7.30;99.90;;;;;;5037237;28;20205;-83
2023/11/13 09:30:29;;;;;;;12.20;7.60;;;7.40;99.90;;;;;;5054674;28;20646;-83
2023/11/13 09:32:59;;;;;;;13.00;7.30;;;7.30;99.90;;;;;;5054955;28;20201;-85
2023/11/13 09:35:26;;;;;;;13.63;8.00;;;7.40;99.90;;;;;;5053942;28;20208;-83
2023/11/13 09:37:57;;;;;;;12.07;7.70;;;7.40;99.90;;;;;;5053251;28;20232;-84
2023/11/13 09:40:29;;;;;;;12.40;7.77;;;7.40;99.90;;;;;;5053259;28;20226;-85
2023/11/13 09:43:18;;;;;;;17.00;7.97;;;7.50;99.90;;;;;;5037045;28;20285;-83
2023/11/13 09:45:51;;;;;;;10.90;7.00;;;7.50;99.90;;;;;;5054700;28;20198;-84
2023/11/13 09:48:28;;;;;;;12.20;7.10;;;7.50;99.90;;;;;;5036825;28;20288;-83
2023/11/13 09:50:59;;;;;;;12.17;7.87;;;7.50;99.90;;;;;;5053198;28;20255;-83
2023/11/13 09:53:28;;;;;;;15.13;8.37;;;7.50;99.90;;;;;;5054708;28;20190;-84
2023/11/13 09:55:57;;;;;;;14.67;7.70;;;7.50;99.90;;;;;;5053331;28;20321;-84
2023/11/13 09:58:24;;;;;;;12.30;7.10;;;7.50;99.90;;;;;;5053226;28;20466;-84
2023/11/13 10:00:52;;;;;;;14.70;7.97;;;7.40;99.90;;;;;;5053921;28;20260;-83
2023/11/13 10:03:20;;;;;;;11.57;7.50;;;7.50;99.90;;;;;;5036513;28;20290;-85
2023/11/13 10:05:47;;;;;;;13.43;7.63;;;7.40;99.90;;;;;;5053230;28;20234;-84
2023/11/13 10:08:14;;;;;;;11.90;7.27;;;7.70;99.90;;;;;;5054277;28;20193;-83
2023/11/13 10:10:42;;;;;;;11.20;7.17;;;7.50;99.90;;;;;;5054294;28;20216;-83
2023/11/13 10:13:12;;;;;;;11.83;7.80;;;7.40;99.90;;;;;;5052649;28;20226;-83
2023/11/13 10:15:41;;;;;;;13.80;7.67;;;7.50;99.90;;;;;;5053010;28;20205;-84
2023/11/13 10:18:15;;;;;;;13.27;7.43;;;7.60;99.90;;;;;;5054312;28;20391;-84
2023/11/13 10:20:49;;;;;;;13.70;8.10;;;7.70;99.90;;;;;;5052598;28;20221;-84
2023/11/13 10:23:16;;;;;;;13.70;8.27;;;7.70;99.90;;;;;;5051627;28;20273;-86
2023/11/13 10:25:46;;;;;;;12.87;7.70;;;7.90;99.90;;;;;;5053643;28;20212;-85
2023/11/13 10:28:17;;;;;;;12.50;7.37;;;7.90;99.90;;;;;;5052558;28;20228;-86
2023/11/13 10:30:51;;;;;;;11.97;7.33;;;7.90;99.90;;;;;;5052873;28;20183;-86
2023/11/13 10:33:19;;;;;;;13.57;7.53;;;7.80;99.90;;;;;;5053821;28;20208;-87
2023/11/13 10:35:51;;;;;;;12.33;7.53;;;7.70;99.90;;;;;;5053742;28;20209;-83
2023/11/13 10:38:24;;;;;;;12.53;7.53;;;7.80;99.90;;;;;;5052197;28;20197;-84
2023/11/13 10:41:00;;;;;;;11.77;7.63;;;7.80;99.90;;;;;;5053556;28;20240;-83
2023/11/13 10:43:44;;;;;;;13.33;7.40;;;7.90;99.90;;;;;;5054007;28;20208;-83
2023/11/13 10:46:29;;;;;;;12.20;7.53;;;7.90;99.90;;;;;;5052662;28;20256;-84
2023/11/13 10:48:59;;;;;;;10.60;7.27;;;7.90;99.90;;;;;;5053659;28;20221;-85
2023/11/13 10:51:30;;;;;;;13.57;7.17;;;8.00;99.90;;;;;;5052416;28;20202;-85
2023/11/13 10:54:00;;;;;;;13.03;7.60;;;8.10;99.90;;;;;;5051998;28;20193;-84
2023/11/13 10:56:30;;;;;;;12.00;7.70;;;8.00;99.90;;;;;;5053001;28;20210;-85
2023/11/13 10:58:57;;;;;;;13.63;7.63;;;8.00;99.90;;;;;;5053093;28;20190;-82
2023/11/13 11:01:29;;;;;;;10.80;7.50;;;8.00;99.90;;;;;;5052935;28;20210;-83
2023/11/13 11:04:04;;;;;;;11.30;7.40;;;8.00;99.90;;;;;;5053550;28;20635;-86
2023/11/13 11:06:39;;;;;;;11.37;7.10;;;7.90;99.90;;;;;;5052364;28;20202;-87
2023/11/13 11:09:12;;;;;;;10.97;7.33;;;7.90;99.90;;;;;;5051820;28;20281;-86
2023/11/13 11:11:41;;;;;;;13.07;7.43;;;8.00;99.90;;;;;;5051698;28;20245;-84
2023/11/13 11:14:23;;;;;;;10.73;7.07;;;8.10;99.90;;;;;;5051730;28;20195;-85
2023/11/13 11:17:15;;;;;;;11.77;7.03;;;8.10;99.90;;;;;;5053099;28;20707;-87
2023/11/13 11:19:48;;;;;;;11.40;6.90;;;8.00;99.90;;;;;;5052854;28;20208;-88
2023/11/13 11:22:44;;;;;;;12.33;6.80;;;8.00;99.90;;;;;;5053179;28;20194;-87
2023/11/13 11:25:25;;;;;;;11.87;7.13;;;8.20;99.90;;;;;;5052609;28;20199;-87
2023/11/13 11:28:17;;;;;;;;;;;;;;;;;;;;;
2023/11/13 11:31:32;;;;;;;10.97;7.03;;;8.40;99.90;;;;;;5034175;28;20202;-90
2023/11/13 11:34:01;;;;;;;13.67;7.60;;;8.40;99.90;;;;;;5017522;28;20198;-90
2023/11/13 11:36:47;;;;;;;12.37;7.80;;;8.40;99.90;;;;;;5052215;28;20662;-91
2023/11/13 11:39:49;;;;;;;10.90;6.90;;;8.30;99.90;;;;;;5016973;28;20209;-91
2023/11/13 11:42:28;;;;;;;12.13;7.40;;;8.50;99.90;;;;;;5005870;28;20208;-92
2023/11/13 11:45:07;;;;;;;13.70;7.80;;;8.50;99.90;;;;;;5027309;28;20206;-89
2023/11/13 11:47:38;;;;;;;11.77;7.50;;;8.60;99.90;;;;;;4998155;28;20203;-89
2023/11/13 11:50:28;;;;;;;11.67;7.80;;;8.70;99.90;;;;;;5031278;28;20228;-92
2023/11/13 11:53:31;;;;;;;10.50;7.40;;;8.50;99.90;;;;;;5020958;28;20248;-91
2023/11/13 11:57:15;;;;;;;12.60;7.60;;;8.50;99.90;;;;;;5026654;28;20219;-91
2023/11/13 11:59:45;;;;;;;12.70;7.80;;;8.40;99.90;;;;;;4998662;28;20230;-91
2023/11/13 12:02:22;;;;;;;9.47;7.50;;;8.40;99.90;;;;;;5029532;28;20287;-91
2023/11/13 12:05:03;;;;;;;13.27;7.47;;;8.30;99.90;;;;;;5037822;28;20210;-91
2023/11/13 12:07:35;;;;;;;13.20;7.60;;;8.60;99.90;;;;;;5045566;28;20239;-92
2023/11/13 12:10:08;;;;;;;16.10;7.30;;;8.40;99.90;;;;;;5044736;28;20191;-90
2023/11/13 12:12:55;;;;;;;11.13;7.20;;;8.50;99.90;;;;;;5048112;28;20194;-92
2023/11/13 12:15:42;;;;;;;10.73;7.37;;;8.50;99.90;;;;;;5172329;23;20240;-93
2023/11/13 12:18:17;;;;;;;12.70;8.03;;;8.50;99.90;;;;;;4996531;28;20199;-84
2023/11/13 12:20:45;;;;;;;11.60;8.13;;;8.60;99.90;;;;;;4993087;28;20220;-86
2023/11/13 12:23:15;;;;;;;14.60;8.00;;;8.90;99.90;;;;;;4975731;28;20207;-84
2023/11/13 12:25:43;;;;;;;12.43;8.13;;;9.10;99.90;;;;;;4990724;28;20438;-87
2023/11/13 12:28:11;;;;;;;12.40;7.80;;;9.10;99.90;;;;;;4975608;28;20248;-83
2023/11/13 12:30:39;;;;;;;10.23;7.20;;;9.20;99.90;;;;;;4993038;28;20197;-84
2023/11/13 12:33:08;;;;;;;12.27;6.90;;;9.10;99.90;;;;;;4991868;28;20402;-84
2023/11/13 12:35:36;;;;;;;13.00;7.57;;;8.90;99.90;;;;;;4991869;28;20203;-83
2023/11/13 12:38:04;;;;;;;11.17;7.13;;;9.00;99.90;;;;;;4993827;28;20263;-85
2023/11/13 12:40:35;;;;;;;13.47;8.50;;;9.20;99.90;;;;;;4991422;28;20219;-85
2023/11/13 12:43:04;;;;;;;13.33;7.60;;;9.10;99.90;;;;;;4993232;28;20201;-86
2023/11/13 12:45:32;;;;;;;10.87;7.40;;;9.00;99.90;;;;;;4975466;28;20211;-82
2023/11/13 12:48:01;;;;;;;11.57;7.17;;;8.90;99.90;;;;;;4995857;28;20238;-82
2023/11/13 12:50:28;;;;;;;12.40;7.47;;;9.10;99.90;;;;;;4978758;28;20711;-84
2023/11/13 12:52:57;;;;;;;11.77;7.83;;;8.90;99.90;;;;;;4996294;28;20212;-82
2023/11/13 12:55:32;;;;;;;13.03;8.00;;;9.00;99.90;;;;;;4996534;28;20217;-90
2023/11/13 12:58:06;;;;;;;11.17;7.80;;;9.30;99.90;;;;;;4981523;28;20648;-91
2023/11/13 13:10:59;;;;;;;11.37;7.40;;;9.40;99.90;;;;;;4952912;28;20217;-93
2023/11/13 13:13:36;;;;;;;10.10;6.70;;;9.50;99.90;;;;;;4957067;29;20216;-88
2023/11/13 13:16:27;;;;;;;9.87;6.87;;;9.80;99.90;;;;;;4925724;29;20213;-83
2023/11/13 13:18:56;;;;;;;11.17;6.80;;;10.10;99.90;;;;;;4940032;29;20205;-84
2023/11/13 13:21:36;;;;;;;9.93;7.00;;;10.40;99.90;;;;;;4956601;29;20631;-84
2023/11/13 13:24:07;;;;;;;9.83;5.37;;;10.40;99.90;;;;;;4924179;29;20306;-84
2023/11/13 13:26:39;;;;;;;7.60;4.83;;;10.30;99.90;;;;;;4939697;29;20289;-84
2023/11/13 13:29:07;;;;;;;6.93;4.70;;;10.40;99.90;;;;;;4940575;29;20227;-83
2023/11/13 13:31:38;;;;;;;7.17;5.07;;;10.40;99.90;;;;;;4939637;29;20289;-83
2023/11/13 13:34:07;;;;;;;7.17;5.10;;;9.90;99.90;;;;;;4939756;29;20199;-85
2023/11/13 13:36:36;;;;;;;8.47;5.37;;;9.70;99.90;;;;;;4924622;29;20210;-85
2023/11/13 13:39:14;;;;;;;8.73;5.70;;;9.70;99.90;;;;;;4941443;29;20693;-84
2023/11/13 13:41:43;;;;;;;8.80;5.33;;;9.60;99.90;;;;;;4939401;29;20222;-85
2023/11/13 13:44:12;;;;;;;8.13;5.20;;;9.60;99.90;;;;;;4956470;29;20202;-84
2023/11/13 13:46:42;;;;;;;8.20;5.40;;;9.30;99.90;;;;;;4956543;29;20583;-83
2023/11/13 13:49:10;;;;;;;7.30;5.20;;;9.20;99.90;;;;;;4956191;29;20745;-84
2023/11/13 13:51:43;;;;;;;13.97;5.33;;;9.20;99.90;;;;;;4956382;29;20204;-88
2023/11/13 13:54:16;;;;;;;6.77;4.30;;;9.20;99.90;;;;;;4956806;29;20202;-87
2023/11/13 13:56:43;;;;;;;8.37;4.37;;;9.10;99.90;;;;;;4956928;28;20224;-89
2023/11/13 13:59:11;;;;;;;8.37;4.73;;;9.20;99.90;;;;;;4939070;29;20198;-87
2023/11/13 14:01:42;;;;;;;6.50;4.60;;;9.00;99.90;;;;;;4962167;29;20217;-90
2023/11/13 14:04:11;;;;;;;6.70;5.10;;;8.80;99.90;;;;;;4940205;29;20222;-90
2023/11/13 14:06:42;;;;;;;8.30;5.43;;;8.70;99.90;;;;;;4939311;29;20301;-90
2023/11/13 14:09:14;;;;;;;8.00;5.60;;;8.80;99.90;;;;;;4923417;29;20230;-90
2023/11/13 14:11:42;;;;;;;9.63;5.53;;;8.70;99.90;;;;;;4943289;29;20228;-92
2023/11/13 14:14:16;;;;;;;9.40;5.73;;;8.60;99.90;;;;;;4944614;29;20292;-91
2023/11/13 14:17:01;;;;;;;13.70;6.10;;;8.50;99.90;;;;;;4931485;29;20202;-91
2023/11/13 14:19:37;;;;;;;11.10;6.20;;;8.40;99.90;;;;;;4955155;28;20201;-93
2023/11/13 14:22:05;;;;;;;9.33;5.90;;;8.40;99.90;;;;;;5030960;23;20232;-95
2023/11/13 14:24:36;;;;;;;10.70;6.37;;;8.50;99.90;;;;;;4949971;28;20214;-95
2023/11/13 14:27:07;;;;;;;9.07;6.37;;;8.40;99.90;;;;;;4960684;28;20263;-90
2023/11/13 14:29:35;;;;;;;10.60;6.47;;;8.50;99.90;;;;;;4957678;28;20267;-86
2023/11/13 14:32:04;;;;;;;12.30;6.83;;;8.40;99.90;;;;;;4975009;28;20201;-85
2023/11/13 14:34:32;;;;;;;13.23;6.20;;;8.30;99.90;;;;;;4957962;28;20194;-78
2023/11/13 14:37:02;;;;;;;12.07;6.87;;;8.20;99.90;;;;;;4974905;28;20210;-80
2023/11/13 14:39:30;;;;;;;10.20;6.47;;;8.00;99.90;;;;;;4974807;28;20635;-84
2023/11/13 14:41:59;;;;;;;12.30;7.00;;;7.90;99.90;;;;;;4974469;28;20220;-82
2023/11/13 14:44:26;;;;;;;11.13;6.90;;;7.80;99.90;;;;;;4974558;28;20675;-82
2023/11/13 14:46:57;;;;;;;22.43;7.57;;;7.70;99.90;;;;;;4941250;28;20205;-82
2023/11/13 14:49:25;;;;;;;15.00;8.07;;;7.60;99.90;;;;;;4957552;28;20275;-82
2023/11/13 14:51:52;;;;;;;15.17;8.30;;;7.40;99.90;;;;;;4974825;28;20278;-81
2023/11/13 14:54:19;;;;;;;14.77;7.83;;;7.50;99.90;;;;;;4974579;28;20207;-81
2023/11/13 14:56:47;;;;;;;12.40;8.07;;;7.30;99.90;;;;;;4956937;28;20688;-83
2023/11/13 14:59:15;;;;;;;15.30;7.70;;;7.20;99.90;;;;;;4941004;28;20715;-89
2023/11/13 15:01:42;;;;;;;10.57;7.03;;;7.10;99.90;;;;;;4941152;28;20223;-87
2023/11/13 15:04:10;;;;;;;14.83;7.70;;;7.10;99.90;;;;;;4957003;28;20717;-88
2023/11/13 15:06:37;;;;;;;16.23;7.90;;;7.00;99.90;;;;;;4974464;28;20204;-86
2023/11/13 15:09:05;;;;;;;14.83;7.30;;;7.00;99.90;;;;;;4973937;28;20210;-86
2023/11/13 15:11:32;;;;;;;15.37;8.30;;;6.90;99.90;;;;;;4974277;28;20228;-86
2023/11/13 15:14:00;;;;;;;16.03;8.03;;;6.90;99.90;;;;;;4974069;28;20658;-86
2023/11/13 15:16:27;;;;;;;15.53;7.90;;;6.90;99.90;;;;;;4974382;28;20314;-87
2023/11/13 15:18:54;;;;;;;16.33;7.60;;;6.70;99.90;;;;;;4956777;28;20216;-89
2023/11/13 15:21:21;;;;;;;10.23;7.30;;;6.60;99.90;;;;;;4973837;28;20646;-87
2023/11/13 15:23:49;;;;;;;17.60;7.70;;;6.60;99.90;;;;;;4957402;28;20816;-86
2023/11/13 15:26:17;;;;;;;11.00;6.90;;;6.50;99.90;;;;;;4956487;28;20635;-88
2023/11/13 15:28:45;;;;;;;15.77;7.60;;;6.50;99.90;;;;;;4956677;28;20280;-87
2023/11/13 15:31:12;;;;;;;13.93;7.47;;;6.50;99.90;;;;;;4940772;28;20234;-82
2023/11/13 15:33:39;;;;;;;13.87;7.50;;;6.50;99.90;;;;;;4973871;28;20206;-84
2023/11/13 15:36:07;;;;;;;13.83;7.17;;;6.50;99.90;;;;;;4973654;28;20601;-83
2023/11/13 15:38:34;;;;;;;12.40;6.90;;;6.50;99.90;;;;;;4973608;28;20642;-83
2023/11/13 15:41:01;;;;;;;11.50;6.70;;;6.50;99.90;;;;;;4973760;28;20220;-84
2023/11/13 15:43:28;;;;;;;13.23;6.63;;;6.40;99.90;;;;;;4973881;28;20268;-83
2023/11/13 15:45:55;;;;;;;11.83;6.67;;;6.40;99.90;;;;;;4940051;28;20212;-81
2023/11/13 15:48:22;;;;;;;12.77;6.40;;;6.40;99.90;;;;;;4940589;28;20199;-81
2023/11/13 15:50:50;;;;;;;11.50;6.83;;;6.40;99.90;;;;;;4940318;28;20197;-84
2023/11/13 15:53:17;;;;;;;12.37;6.43;;;6.30;99.90;;;;;;4940543;28;20201;-84
2023/11/13 15:55:45;;;;;;;12.70;7.37;;;6.30;99.90;;;;;;4956632;28;20227;-83
2023/11/13 15:58:12;;;;;;;11.60;7.13;;;6.30;99.90;;;;;;4940388;28;20194;-84
2023/11/13 16:00:40;;;;;;;14.90;7.73;;;6.20;99.90;;;;;;4956314;28;20298;-84
2023/11/13 16:03:10;;;;;;;12.30;7.70;;;6.20;99.90;;;;;;4956371;28;20244;-83
2023/11/13 16:05:38;;;;;;;13.50;8.60;;;6.10;99.90;;;;;;4973608;28;20194;-83
2023/11/13 16:08:06;;;;;;;14.60;8.43;;;6.00;99.90;;;;;;4973532;28;20301;-83
2023/11/13 16:10:33;;;;;;;17.70;8.97;;;6.00;99.90;;;;;;4956280;28;20759;-84
2023/11/13 16:13:01;;;;;;;17.00;9.27;;;5.90;99.90;;;;;;4973561;28;20640;-83
2023/11/13 16:15:28;;;;;;;17.33;9.20;;;5.90;99.90;;;;;;4955964;28;20238;-85
2023/11/13 16:17:55;;;;;;;19.00;9.60;;;5.90;99.90;;;;;;4956391;28;20251;-85
2023/11/13 16:20:24;;;;;;;17.27;9.13;;;5.80;99.90;;;;;;4974210;28;20196;-83
2023/11/13 16:22:52;;;;;;;17.90;9.70;;;5.80;99.90;;;;;;4976785;28;20243;-83
2023/11/13 16:25:19;;;;;;;18.77;10.03;;;5.70;99.90;;;;;;4975286;28;20710;-83
2023/11/13 16:27:47;;;;;;;18.73;10.30;;;5.70;99.90;;;;;;4977311;28;20584;-83
2023/11/13 16:30:14;;;;;;;19.50;10.37;;;5.60;99.90;;;;;;4944173;28;20302;-84
2023/11/13 16:32:42;;;;;;;18.37;10.40;;;5.50;99.90;;;;;;4960033;28;20281;-84
2023/11/13 16:35:12;;;;;;;16.93;10.43;;;5.60;99.90;;;;;;4977298;28;20202;-84
2023/11/13 16:37:39;;;;;;;18.20;10.83;;;5.50;99.90;;;;;;4977148;28;20254;-84
2023/11/13 16:40:07;;;;;;;23.13;11.20;;;5.50;99.90;;;;;;4976675;28;20194;-84
2023/11/13 16:42:37;;;;;;;20.20;11.53;;;5.40;99.90;;;;;;4943427;28;20217;-84
2023/11/13 16:45:04;;;;;;;20.20;11.77;;;5.40;99.90;;;;;;4976914;28;20232;-84
2023/11/13 16:47:32;;;;;;;21.17;11.80;;;5.40;99.90;;;;;;4976612;28;20190;-86
2023/11/13 16:50:00;;;;;;;23.10;13.27;;;5.40;99.90;;;;;;4959398;28;20195;-84
2023/11/13 16:52:28;;;;;;;21.30;13.50;;;5.30;99.90;;;;;;4959028;28;20553;-85
2023/11/13 16:54:57;;;;;;;21.20;13.17;;;5.30;99.90;;;;;;4959632;28;20210;-86
2023/11/13 16:57:24;;;;;;;24.73;12.97;;;5.30;99.90;;;;;;4959318;28;20667;-82
2023/11/13 16:59:53;;;;;;;23.20;13.77;;;5.20;99.90;;;;;;4959643;28;20225;-85
2023/11/13 17:02:21;;;;;;;23.93;13.50;;;5.20;99.90;;;;;;4959613;28;20237;-82
2023/11/13 17:04:49;;;;;;;27.70;14.33;;;5.20;99.90;;;;;;4976555;28;20468;-82
2023/11/13 17:07:16;;;;;;;25.57;14.00;;;5.20;99.90;;;;;;4976195;28;20224;-82
2023/11/13 17:09:44;;;;;;;23.87;14.30;;;5.20;99.90;;;;;;4959218;28;20202;-83
2023/11/13 17:12:11;;;;;;;23.20;13.70;;;5.20;99.90;;;;;;4976426;28;20320;-81
2023/11/13 17:14:41;;;;;;;28.20;13.77;;;5.20;99.90;;;;;;4958738;28;20389;-81
2023/11/13 17:17:08;;;;;;;24.30;13.37;;;5.10;99.90;;;;;;4958627;28;20305;-83
2023/11/13 17:19:35;;;;;;;24.13;14.40;;;5.10;99.90;;;;;;4958782;28;20453;-82
2023/11/13 17:22:03;;;;;;;24.57;14.33;;;5.10;99.90;;;;;;4975981;28;20235;-83
2023/11/13 17:24:30;;;;;;;30.33;16.67;;;5.00;99.90;;;;;;4943439;28;20300;-82
2023/11/13 17:26:57;;;;;;;26.10;15.70;;;5.00;99.90;;;;;;4975939;28;20309;-82
2023/11/13 17:29:25;;;;;;;27.20;15.47;;;4.90;99.90;;;;;;4975980;28;20285;-83
2023/11/13 17:31:52;;;;;;;29.50;16.27;;;5.00;99.90;;;;;;4958630;28;20272;-82
2023/11/13 17:34:20;;;;;;;31.17;16.67;;;4.90;99.90;;;;;;4958373;28;20197;-84
2023/11/13 17:36:47;;;;;;;29.97;17.53;;;4.90;99.90;;;;;;4975756;28;20676;-82
2023/11/13 17:39:14;;;;;;;29.50;17.30;;;4.80;99.90;;;;;;4975948;28;20613;-82
2023/11/13 17:41:42;;;;;;;29.40;17.47;;;4.80;99.90;;;;;;4975882;28;20219;-82
2023/11/13 17:44:09;;;;;;;31.47;18.23;;;4.70;99.90;;;;;;4958867;28;20201;-82
2023/11/13 17:46:37;;;;;;;30.13;17.77;;;4.70;99.90;;;;;;4958571;28;20206;-82
2023/11/13 17:49:05;;;;;;;26.67;16.70;;;4.70;99.90;;;;;;4958626;28;20197;-81
2023/11/13 17:51:32;;;;;;;32.37;17.90;;;4.70;99.90;;;;;;4958716;28;20198;-81
2023/11/13 17:54:00;;;;;;;33.03;17.43;;;4.60;99.90;;;;;;4975517;28;20245;-81
2023/11/13 17:56:27;;;;;;;31.90;17.33;;;4.60;99.90;;;;;;4975689;28;20617;-83
2023/11/13 17:58:54;;;;;;;34.10;18.03;;;4.60;99.90;;;;;;4975377;28;20221;-80
2023/11/13 18:01:21;;;;;;;30.30;17.50;;;4.50;99.90;;;;;;4975762;28;20549;-80
2023/11/13 18:03:52;;;;;;;32.40;17.63;;;4.50;99.90;;;;;;4975288;28;20253;-80
2023/11/13 18:06:20;;;;;;;33.73;17.63;;;4.50;99.90;;;;;;4975498;28;20638;-79
2023/11/13 18:08:48;;;;;;;28.73;17.27;;;4.50;99.90;;;;;;4975584;28;20545;-79
2023/11/13 18:11:15;;;;;;;32.93;18.53;;;4.40;99.90;;;;;;4978068;28;20222;-80
2023/11/13 18:13:43;;;;;;;32.20;17.57;;;4.40;99.90;;;;;;4957762;28;20232;-81
2023/11/13 18:16:10;;;;;;;35.07;18.67;;;4.40;99.90;;;;;;4957663;28;20564;-80
2023/11/13 18:18:38;;;;;;;34.70;19.33;;;4.40;99.90;;;;;;4926472;28;20644;-80
2023/11/13 18:21:05;;;;;;;36.83;20.07;;;4.30;99.90;;;;;;4958084;28;20206;-80
2023/11/13 18:23:32;;;;;;;35.43;19.67;;;4.30;99.90;;;;;;4974967;28;20879;-80
2023/11/13 18:26:00;;;;;;;38.70;21.07;;;4.30;99.90;;;;;;4974938;28;20217;-80
2023/11/13 18:28:27;;;;;;;38.53;20.50;;;4.30;99.90;;;;;;4974961;28;20654;-79
2023/11/13 18:30:57;;;;;;;36.53;20.43;;;4.30;99.90;;;;;;4974766;28;20760;-79
2023/11/13 18:33:28;;;;;;;37.93;20.97;;;4.30;99.90;;;;;;4957355;28;20214;-81
2023/11/13 18:35:57;;;;;;;36.73;20.67;;;4.30;99.90;;;;;;4975043;28;20309;-80
2023/11/13 18:38:25;;;;;;;35.30;20.57;;;4.30;99.90;;;;;;4957567;28;20208;-80
2023/11/13 18:40:52;;;;;;;39.60;20.03;;;4.30;99.90;;;;;;4957464;28;20591;-81
2023/11/13 18:43:19;;;;;;;35.07;19.93;;;4.20;99.90;;;;;;4974357;28;20218;-80
2023/11/13 18:45:50;;;;;;;37.30;19.97;;;4.30;99.90;;;;;;4974478;28;20204;-80
2023/11/13 18:48:18;;;;;;;34.70;20.00;;;4.20;99.90;;;;;;4941396;28;20252;-79
2023/11/13 18:50:45;;;;;;;38.77;20.40;;;4.20;99.90;;;;;;4974408;28;20234;-79
2023/11/13 18:53:12;;;;;;;37.87;21.20;;;4.20;99.90;;;;;;4974331;28;20699;-80
2023/11/13 18:55:40;;;;;;;37.47;21.20;;;4.20;99.90;;;;;;4957176;28;20206;-81
2023/11/13 18:58:07;;;;;;;34.60;19.90;;;4.20;99.90;;;;;;4957332;28;20244;-80
2023/11/13 19:00:34;;;;;;;37.50;18.97;;;4.20;99.90;;;;;;4974602;28;20197;-80
2023/11/13 19:03:01;;;;;;;34.60;18.50;;;4.20;99.90;;;;;;4956701;28;20280;-80
2023/11/13 19:05:28;;;;;;;34.93;19.63;;;4.20;99.90;;;;;;4941005;28;20289;-81
2023/11/13 19:07:56;;;;;;;34.53;19.03;;;4.20;99.90;;;;;;4957188;28;20205;-79
2023/11/13 19:10:23;;;;;;;39.00;19.50;;;4.10;99.90;;;;;;4974352;28;20281;-80
2023/11/13 19:12:51;;;;;;;35.60;19.50;;;4.10;99.90;;;;;;4974432;28;20253;-80
2023/11/13 19:15:18;;;;;;;33.37;18.30;;;4.10;99.90;;;;;;4941207;28;20198;-80
2023/11/13 19:17:46;;;;;;;36.93;19.10;;;4.20;99.90;;;;;;4940899;28;20197;-81
2023/11/13 19:20:13;;;;;;;34.90;18.00;;;4.20;99.90;;;;;;4940926;28;20569;-81
2023/11/13 19:22:45;;;;;;;31.70;18.17;;;4.20;99.90;;;;;;4974017;28;20262;-80
2023/11/13 19:25:12;;;;;;;35.13;18.53;;;4.20;99.90;;;;;;4974079;28;20194;-81
2023/11/13 19:27:39;;;;;;;34.83;19.23;;;4.20;99.90;;;;;;4975381;28;20189;-79
2023/11/13 19:30:08;;;;;;;33.60;18.53;;;4.10;99.90;;;;;;4940528;28;20252;-79
2023/11/13 19:32:35;;;;;;;31.47;17.30;;;3.90;99.90;;;;;;4974119;28;20203;-81
2023/11/13 19:35:06;;;;;;;37.03;18.87;;;4.00;99.90;;;;;;4973896;28;20196;-81
2023/11/13 19:37:33;;;;;;;36.07;18.93;;;4.00;99.90;;;;;;4956763;28;20240;-80
2023/11/13 19:40:00;;;;;;;35.43;17.80;;;4.00;99.90;;;;;;4973858;28;20187;-81
2023/11/13 19:42:27;;;;;;;32.37;18.47;;;4.10;99.90;;;;;;4973860;28;20217;-80
2023/11/13 19:44:55;;;;;;;33.17;17.77;;;4.10;99.90;;;;;;4973837;28;20260;-80
2023/11/13 19:47:22;;;;;;;39.77;19.00;;;4.10;99.90;;;;;;4973658;28;20240;-80
2023/11/13 19:49:49;;;;;;;34.57;16.77;;;4.00;99.90;;;;;;4956485;28;20201;-80
2023/11/13 19:52:16;;;;;;;32.53;18.43;;;4.10;99.90;;;;;;4956417;28;20209;-81
2023/11/13 19:54:44;;;;;;;29.23;17.57;;;4.10;99.90;;;;;;4956086;28;20240;-80
2023/11/13 19:57:11;;;;;;;32.30;17.57;;;4.20;99.90;;;;;;4956205;28;20252;-80
2023/11/13 19:59:42;;;;;;;33.90;17.63;;;4.20;99.90;;;;;;4956555;28;20194;-80
2023/11/13 20:02:09;;;;;;;32.00;17.90;;;4.10;99.90;;;;;;4956088;28;20194;-80
2023/11/13 20:04:36;;;;;;;32.90;17.17;;;4.10;99.90;;;;;;4973492;28;20190;-79
2023/11/13 20:07:04;;;;;;;31.83;16.90;;;4.10;99.90;;;;;;4940556;28;20209;-79
2023/11/13 20:09:32;;;;;;;34.20;17.37;;;4.10;99.90;;;;;;4955771;28;20215;-80
2023/11/13 20:12:02;;;;;;;29.50;17.17;;;4.10;99.90;;;;;;4955946;28;20217;-80
2023/11/13 20:14:29;;;;;;;30.37;17.00;;;4.10;99.90;;;;;;4955682;28;20330;-80
2023/11/13 20:16:56;;;;;;;33.90;17.50;;;4.10;99.90;;;;;;4955880;28;20229;-80
2023/11/13 20:19:24;;;;;;;34.10;17.80;;;4.10;99.90;;;;;;4973455;28;20227;-79
2023/11/13 20:21:52;;;;;;;27.43;15.63;;;4.00;99.90;;;;;;4973581;28;20233;-81
2023/11/13 20:24:19;;;;;;;28.17;15.47;;;3.90;99.90;;;;;;4973369;28;20225;-81
2023/11/13 20:26:48;;;;;;;29.33;16.37;;;3.90;99.90;;;;;;4939593;28;20232;-81
2023/11/13 20:29:16;;;;;;;31.40;16.37;;;3.90;99.90;;;;;;4956636;28;20203;-80
2023/11/13 20:31:43;;;;;;;30.90;15.87;;;4.00;99.90;;;;;;4940116;28;20209;-80
2023/11/13 20:34:14;;;;;;;28.77;16.33;;;4.00;99.90;;;;;;4973286;28;20200;-80
2023/11/13 20:36:41;;;;;;;30.37;16.13;;;4.00;99.90;;;;;;4940770;28;20205;-80
2023/11/13 20:39:09;;;;;;;27.57;15.43;;;4.10;99.90;;;;;;4955824;28;20190;-80
2023/11/13 20:41:36;;;;;;;28.30;15.30;;;4.10;99.90;;;;;;4955762;28;20283;-79
2023/11/13 20:44:05;;;;;;;26.23;14.73;;;4.00;99.90;;;;;;4940140;28;20717;-80
2023/11/13 20:46:32;;;;;;;28.67;15.30;;;3.90;99.90;;;;;;4956087;28;20613;-80
2023/11/13 20:49:00;;;;;;;27.07;15.17;;;3.90;99.90;;;;;;4955789;28;20595;-80
2023/11/13 20:51:27;;;;;;;30.87;15.43;;;3.90;99.90;;;;;;4973118;28;20268;-80
2023/11/13 20:53:54;;;;;;;29.03;15.77;;;3.90;99.90;;;;;;4973054;28;20198;-79
2023/11/13 20:56:24;;;;;;;29.17;15.33;;;4.00;99.90;;;;;;4955671;28;20218;-79
2023/11/13 20:58:52;;;;;;;27.67;15.53;;;3.80;99.90;;;;;;4973330;28;20194;-79
2023/11/13 21:01:20;;;;;;;29.63;16.30;;;3.80;99.90;;;;;;4972952;28;20205;-79
2023/11/13 21:03:48;;;;;;;28.63;15.20;;;3.80;99.90;;;;;;4956136;28;20229;-79
2023/11/13 21:06:16;;;;;;;30.27;15.50;;;3.80;99.90;;;;;;4955953;28;20202;-79
2023/11/13 21:08:43;;;;;;;26.33;15.00;;;3.70;99.90;;;;;;4959045;28;20281;-79
2023/11/13 21:11:10;;;;;;;26.50;15.17;;;3.70;99.90;;;;;;4943054;28;20580;-80